sensor_id;sensor_type;location;lat;lon;timestamp;pressure;altitude;pressure_sealevel;temperature;humidity
51460;BME280;37534;39.772;2.718;2024-01-30T00:01:13;102895.16;;;7.53;100.00
51460;BME280;37534;39.772;2.718;2024-01-30T00:03:39;102893.44;;;7.54;100.00
51460;BME280;37534;39.772;2.718;2024-01-30T00:06:04;102889.13;;;7.53;100.00
51460;BME280;37534;39.772;2.718;2024-01-30T00:08:30;102904.53;;;7.53;100.00
51460;BME280;37534;39.772;2.718;2024-01-30T00:10:55;102902.97;;;7.59;100.00
51460;BME280;37534;39.772;2.718;2024-01-30T00:13:21;102903.94;;;7.65;100.00
51460;BME280;37534;39.772;2.718;2024-01-30T00:15:46;102899.59;;;7.62;100.00
51460;BME280;37534;39.772;2.718;2024-01-30T00:18:12;102907.63;;;7.77;100.00
51460;BME280;37534;39.772;2.718;2024-01-30T00:20:37;102908.22;;;7.64;100.00
51460;BME280;37534;39.772;2.718;2024-01-30T00:23:03;102901.91;;;7.50;100.00
51460;BME280;37534;39.772;2.718;2024-01-30T00:25:29;102905.16;;;7.42;100.00
51460;BME280;37534;39.772;2.718;2024-01-30T00:27:56;102911.94;;;7.39;100.00
51460;BME280;37534;39.772;2.718;2024-01-30T00:30:21;102905.78;;;7.31;100.00
51460;BME280;37534;39.772;2.718;2024-01-30T00:32:47;102903.69;;;7.52;100.00
51460;BME280;37534;39.772;2.718;2024-01-30T00:35:12;102898.50;;;7.51;100.00
51460;BME280;37534;39.772;2.718;2024-01-30T00:37:38;102894.25;;;7.53;100.00
51460;BME280;37534;39.772;2.718;2024-01-30T00:40:04;102886.50;;;7.50;100.00
51460;BME280;37534;39.772;2.718;2024-01-30T00:42:31;102888.66;;;7.31;100.00
51460;BME280;37534;39.772;2.718;2024-01-30T00:44:57;102893.78;;;7.31;100.00
51460;BME280;37534;39.772;2.718;2024-01-30T00:47:23;102883.16;;;7.14;100.00
51460;BME280;37534;39.772;2.718;2024-01-30T00:49:48;102888.97;;;7.09;100.00
51460;BME280;37534;39.772;2.718;2024-01-30T00:52:14;102882.91;;;7.03;100.00
51460;BME280;37534;39.772;2.718;2024-01-30T00:54:39;102876.06;;;7.04;100.00
51460;BME280;37534;39.772;2.718;2024-01-30T00:57:05;102888.94;;;7.06;100.00
51460;BME280;37534;39.772;2.718;2024-01-30T00:59:30;102882.16;;;7.09;100.00
51460;BME280;37534;39.772;2.718;2024-01-30T01:01:56;102876.16;;;7.09;100.00
51460;BME280;37534;39.772;2.718;2024-01-30T01:04:21;102894.13;;;7.09;100.00
51460;BME280;37534;39.772;2.718;2024-01-30T01:06:47;102877.81;;;7.07;100.00
51460;BME280;37534;39.772;2.718;2024-01-30T01:09:13;102889.97;;;7.14;100.00
51460;BME280;37534;39.772;2.718;2024-01-30T01:11:39;102881.06;;;6.99;100.00
51460;BME280;37534;39.772;2.718;2024-01-30T01:14:04;102888.72;;;6.98;100.00
51460;BME280;37534;39.772;2.718;2024-01-30T01:16:30;102895.75;;;7.03;100.00
51460;BME280;37534;39.772;2.718;2024-01-30T01:18:56;102885.22;;;6.94;100.00
51460;BME280;37534;39.772;2.718;2024-01-30T01:21:21;102881.50;;;6.81;100.00
51460;BME280;37534;39.772;2.718;2024-01-30T01:23:47;102893.00;;;6.97;100.00
51460;BME280;37534;39.772;2.718;2024-01-30T01:26:13;102887.34;;;6.76;100.00
51460;BME280;37534;39.772;2.718;2024-01-30T01:28:40;102889.84;;;6.73;100.00
51460;BME280;37534;39.772;2.718;2024-01-30T01:31:06;102907.47;;;6.94;100.00
51460;BME280;37534;39.772;2.718;2024-01-30T01:33:32;102909.91;;;6.88;100.00
51460;BME280;37534;39.772;2.718;2024-01-30T01:36:01;102901.00;;;6.75;100.00
51460;BME280;37534;39.772;2.718;2024-01-30T01:38:28;102905.28;;;6.74;100.00
51460;BME280;37534;39.772;2.718;2024-01-30T01:40:53;102896.50;;;6.66;100.00
51460;BME280;37534;39.772;2.718;2024-01-30T01:43:19;102905.00;;;6.63;100.00
51460;BME280;37534;39.772;2.718;2024-01-30T01:45:49;102901.53;;;6.61;100.00
51460;BME280;37534;39.772;2.718;2024-01-30T01:48:15;102904.91;;;6.60;100.00
51460;BME280;37534;39.772;2.718;2024-01-30T01:50:42;102902.41;;;6.62;100.00
51460;BME280;37534;39.772;2.718;2024-01-30T01:53:08;102901.50;;;6.60;100.00
51460;BME280;37534;39.772;2.718;2024-01-30T01:55:35;102904.09;;;6.61;100.00
51460;BME280;37534;39.772;2.718;2024-01-30T01:58:01;102891.28;;;6.61;100.00
51460;BME280;37534;39.772;2.718;2024-01-30T02:00:27;102892.91;;;6.58;100.00
51460;BME280;37534;39.772;2.718;2024-01-30T02:02:54;102906.66;;;6.61;100.00
51460;BME280;37534;39.772;2.718;2024-01-30T02:05:21;102888.63;;;6.58;100.00
51460;BME280;37534;39.772;2.718;2024-01-30T02:07:46;102882.91;;;6.69;100.00
51460;BME280;37534;39.772;2.718;2024-01-30T02:10:12;102880.94;;;6.58;100.00
51460;BME280;37534;39.772;2.718;2024-01-30T02:12:38;102892.31;;;6.70;100.00
51460;BME280;37534;39.772;2.718;2024-01-30T02:15:04;102871.56;;;6.60;100.00
51460;BME280;37534;39.772;2.718;2024-01-30T02:17:30;102876.69;;;6.60;100.00
51460;BME280;37534;39.772;2.718;2024-01-30T02:19:56;102875.13;;;6.65;100.00
51460;BME280;37534;39.772;2.718;2024-01-30T02:22:22;102861.69;;;6.76;100.00
51460;BME280;37534;39.772;2.718;2024-01-30T02:24:48;102856.56;;;6.76;100.00
51460;BME280;37534;39.772;2.718;2024-01-30T02:27:13;102862.66;;;6.79;100.00
51460;BME280;37534;39.772;2.718;2024-01-30T02:29:39;102858.88;;;6.65;100.00
51460;BME280;37534;39.772;2.718;2024-01-30T02:32:04;102864.72;;;6.59;100.00
51460;BME280;37534;39.772;2.718;2024-01-30T02:34:31;102848.22;;;6.50;100.00
51460;BME280;37534;39.772;2.718;2024-01-30T02:36:56;102862.13;;;6.58;100.00
51460;BME280;37534;39.772;2.718;2024-01-30T02:39:22;102859.25;;;6.45;100.00
51460;BME280;37534;39.772;2.718;2024-01-30T02:41:47;102847.88;;;6.36;100.00
51460;BME280;37534;39.772;2.718;2024-01-30T02:44:13;102852.31;;;6.43;100.00
51460;BME280;37534;39.772;2.718;2024-01-30T02:46:38;102854.84;;;6.40;100.00
51460;BME280;37534;39.772;2.718;2024-01-30T02:49:04;102854.88;;;6.43;100.00
51460;BME280;37534;39.772;2.718;2024-01-30T02:51:29;102859.63;;;6.27;100.00
51460;BME280;37534;39.772;2.718;2024-01-30T02:53:55;102854.41;;;6.24;100.00
51460;BME280;37534;39.772;2.718;2024-01-30T02:56:20;102850.69;;;6.45;100.00
51460;BME280;37534;39.772;2.718;2024-01-30T02:58:46;102843.50;;;6.32;100.00
51460;BME280;37534;39.772;2.718;2024-01-30T03:01:11;102840.13;;;6.33;100.00
51460;BME280;37534;39.772;2.718;2024-01-30T03:03:37;102833.25;;;6.32;100.00
51460;BME280;37534;39.772;2.718;2024-01-30T03:06:02;102843.59;;;6.35;100.00
51460;BME280;37534;39.772;2.718;2024-01-30T03:08:28;102830.00;;;6.39;100.00
51460;BME280;37534;39.772;2.718;2024-01-30T03:10:53;102841.91;;;6.37;100.00
51460;BME280;37534;39.772;2.718;2024-01-30T03:13:19;102832.16;;;6.22;100.00
51460;BME280;37534;39.772;2.718;2024-01-30T03:15:45;102839.84;;;6.22;100.00
51460;BME280;37534;39.772;2.718;2024-01-30T03:18:10;102828.41;;;6.11;100.00
51460;BME280;37534;39.772;2.718;2024-01-30T03:20:36;102832.84;;;6.16;100.00
51460;BME280;37534;39.772;2.718;2024-01-30T03:23:01;102838.13;;;6.22;100.00
51460;BME280;37534;39.772;2.718;2024-01-30T03:25:28;102822.25;;;6.02;100.00
51460;BME280;37534;39.772;2.718;2024-01-30T03:27:53;102837.19;;;6.19;100.00
51460;BME280;37534;39.772;2.718;2024-01-30T03:30:19;102840.50;;;6.15;100.00
51460;BME280;37534;39.772;2.718;2024-01-30T03:32:44;102836.38;;;6.21;100.00
51460;BME280;37534;39.772;2.718;2024-01-30T03:35:10;102827.41;;;6.37;100.00
51460;BME280;37534;39.772;2.718;2024-01-30T03:37:36;102833.25;;;6.32;100.00
51460;BME280;37534;39.772;2.718;2024-01-30T03:40:02;102833.78;;;6.18;100.00
51460;BME280;37534;39.772;2.718;2024-01-30T03:42:28;102826.66;;;6.08;100.00
51460;BME280;37534;39.772;2.718;2024-01-30T03:44:54;102828.19;;;6.01;100.00
51460;BME280;37534;39.772;2.718;2024-01-30T03:47:20;102829.78;;;5.98;100.00
51460;BME280;37534;39.772;2.718;2024-01-30T03:49:46;102827.94;;;5.94;100.00
51460;BME280;37534;39.772;2.718;2024-01-30T03:52:12;102832.34;;;5.98;100.00
51460;BME280;37534;39.772;2.718;2024-01-30T03:54:37;102836.66;;;5.99;100.00
51460;BME280;37534;39.772;2.718;2024-01-30T03:57:03;102845.59;;;6.13;100.00
51460;BME280;37534;39.772;2.718;2024-01-30T03:59:29;102834.72;;;6.23;100.00
51460;BME280;37534;39.772;2.718;2024-01-30T04:01:54;102838.81;;;6.15;100.00
51460;BME280;37534;39.772;2.718;2024-01-30T04:04:20;102849.59;;;6.03;100.00
51460;BME280;37534;39.772;2.718;2024-01-30T04:06:46;102846.94;;;6.00;100.00
51460;BME280;37534;39.772;2.718;2024-01-30T04:09:13;102852.19;;;6.05;100.00
51460;BME280;37534;39.772;2.718;2024-01-30T04:11:39;102850.91;;;6.21;100.00
51460;BME280;37534;39.772;2.718;2024-01-30T04:14:05;102830.34;;;6.19;100.00
51460;BME280;37534;39.772;2.718;2024-01-30T04:16:30;102843.03;;;6.13;100.00
51460;BME280;37534;39.772;2.718;2024-01-30T04:18:56;102851.00;;;6.24;100.00
51460;BME280;37534;39.772;2.718;2024-01-30T04:21:22;102842.50;;;6.26;100.00
51460;BME280;37534;39.772;2.718;2024-01-30T04:23:48;102851.03;;;6.25;100.00
51460;BME280;37534;39.772;2.718;2024-01-30T04:26:14;102833.31;;;6.01;100.00
51460;BME280;37534;39.772;2.718;2024-01-30T04:28:41;102859.97;;;6.08;100.00
51460;BME280;37534;39.772;2.718;2024-01-30T04:31:07;102847.53;;;5.92;100.00
51460;BME280;37534;39.772;2.718;2024-01-30T04:33:33;102845.53;;;5.81;100.00
51460;BME280;37534;39.772;2.718;2024-01-30T04:35:58;102846.53;;;5.86;100.00
51460;BME280;37534;39.772;2.718;2024-01-30T04:38:24;102850.91;;;5.90;100.00
51460;BME280;37534;39.772;2.718;2024-01-30T04:40:49;102844.78;;;5.85;100.00
51460;BME280;37534;39.772;2.718;2024-01-30T04:43:15;102849.25;;;5.93;100.00
51460;BME280;37534;39.772;2.718;2024-01-30T04:45:41;102838.50;;;5.74;100.00
51460;BME280;37534;39.772;2.718;2024-01-30T04:48:07;102836.66;;;5.70;100.00
51460;BME280;37534;39.772;2.718;2024-01-30T04:50:33;102834.28;;;5.76;100.00
51460;BME280;37534;39.772;2.718;2024-01-30T04:52:58;102841.78;;;5.70;100.00
51460;BME280;37534;39.772;2.718;2024-01-30T04:55:24;102843.69;;;5.77;100.00
51460;BME280;37534;39.772;2.718;2024-01-30T04:57:49;102848.56;;;5.68;100.00
51460;BME280;37534;39.772;2.718;2024-01-30T05:00:15;102851.03;;;5.65;100.00
51460;BME280;37534;39.772;2.718;2024-01-30T05:02:41;102837.06;;;5.53;100.00
51460;BME280;37534;39.772;2.718;2024-01-30T05:05:06;102853.34;;;5.56;100.00
51460;BME280;37534;39.772;2.718;2024-01-30T05:07:33;102840.84;;;5.66;100.00
51460;BME280;37534;39.772;2.718;2024-01-30T05:09:59;102841.28;;;5.51;100.00
51460;BME280;37534;39.772;2.718;2024-01-30T05:12:25;102849.97;;;5.57;100.00
51460;BME280;37534;39.772;2.718;2024-01-30T05:14:50;102862.78;;;5.57;100.00
51460;BME280;37534;39.772;2.718;2024-01-30T05:17:17;102849.88;;;5.53;100.00
51460;BME280;37534;39.772;2.718;2024-01-30T05:19:43;102857.22;;;5.71;100.00
51460;BME280;37534;39.772;2.718;2024-01-30T05:22:09;102856.31;;;5.69;100.00
51460;BME280;37534;39.772;2.718;2024-01-30T05:24:36;102858.66;;;5.62;100.00
51460;BME280;37534;39.772;2.718;2024-01-30T05:27:02;102856.44;;;5.45;100.00
51460;BME280;37534;39.772;2.718;2024-01-30T05:29:28;102862.50;;;5.47;100.00
51460;BME280;37534;39.772;2.718;2024-01-30T05:31:53;102873.81;;;5.56;100.00
51460;BME280;37534;39.772;2.718;2024-01-30T05:34:19;102873.06;;;5.58;100.00
51460;BME280;37534;39.772;2.718;2024-01-30T05:36:45;102875.84;;;5.66;100.00
51460;BME280;37534;39.772;2.718;2024-01-30T05:39:10;102878.91;;;5.83;100.00
51460;BME280;37534;39.772;2.718;2024-01-30T05:41:36;102874.81;;;5.61;100.00
51460;BME280;37534;39.772;2.718;2024-01-30T05:44:01;102879.78;;;5.55;100.00
51460;BME280;37534;39.772;2.718;2024-01-30T05:46:27;102881.50;;;5.56;100.00
51460;BME280;37534;39.772;2.718;2024-01-30T05:48:53;102870.19;;;5.47;100.00
51460;BME280;37534;39.772;2.718;2024-01-30T05:51:18;102879.47;;;5.45;100.00
51460;BME280;37534;39.772;2.718;2024-01-30T05:53:44;102893.06;;;5.43;100.00
51460;BME280;37534;39.772;2.718;2024-01-30T05:56:09;102879.16;;;5.33;100.00
51460;BME280;37534;39.772;2.718;2024-01-30T05:58:35;102879.00;;;5.28;100.00
51460;BME280;37534;39.772;2.718;2024-01-30T06:01:02;102881.22;;;5.46;100.00
51460;BME280;37534;39.772;2.718;2024-01-30T06:03:28;102886.56;;;5.54;100.00
51460;BME280;37534;39.772;2.718;2024-01-30T06:05:53;102891.63;;;5.51;100.00
51460;BME280;37534;39.772;2.718;2024-01-30T06:08:19;102886.09;;;5.37;100.00
51460;BME280;37534;39.772;2.718;2024-01-30T06:10:45;102903.91;;;5.34;100.00
51460;BME280;37534;39.772;2.718;2024-01-30T06:13:10;102898.56;;;5.26;100.00
51460;BME280;37534;39.772;2.718;2024-01-30T06:15:36;102903.72;;;5.28;100.00
51460;BME280;37534;39.772;2.718;2024-01-30T06:18:01;102906.69;;;5.42;100.00
51460;BME280;37534;39.772;2.718;2024-01-30T06:20:27;102914.34;;;5.40;100.00
51460;BME280;37534;39.772;2.718;2024-01-30T06:22:53;102915.63;;;5.26;100.00
51460;BME280;37534;39.772;2.718;2024-01-30T06:25:19;102908.63;;;5.22;100.00
51460;BME280;37534;39.772;2.718;2024-01-30T06:27:45;102896.38;;;5.11;100.00
51460;BME280;37534;39.772;2.718;2024-01-30T06:30:11;102901.44;;;5.37;100.00
51460;BME280;37534;39.772;2.718;2024-01-30T06:32:36;102895.69;;;5.44;100.00
51460;BME280;37534;39.772;2.718;2024-01-30T06:35:03;102906.66;;;5.40;100.00
51460;BME280;37534;39.772;2.718;2024-01-30T06:37:29;102899.63;;;5.33;100.00
51460;BME280;37534;39.772;2.718;2024-01-30T06:39:54;102915.16;;;5.39;100.00
51460;BME280;37534;39.772;2.718;2024-01-30T06:42:20;102904.59;;;5.28;100.00
51460;BME280;37534;39.772;2.718;2024-01-30T06:44:45;102923.63;;;5.37;100.00
51460;BME280;37534;39.772;2.718;2024-01-30T06:47:11;102915.09;;;5.38;100.00
51460;BME280;37534;39.772;2.718;2024-01-30T06:49:36;102920.22;;;5.38;100.00
51460;BME280;37534;39.772;2.718;2024-01-30T06:52:06;102921.53;;;5.25;100.00
51460;BME280;37534;39.772;2.718;2024-01-30T06:54:32;102921.59;;;5.26;100.00
51460;BME280;37534;39.772;2.718;2024-01-30T06:56:58;102919.84;;;5.52;100.00
51460;BME280;37534;39.772;2.718;2024-01-30T06:59:24;102933.63;;;5.58;100.00
51460;BME280;37534;39.772;2.718;2024-01-30T07:01:50;102934.09;;;5.73;100.00
51460;BME280;37534;39.772;2.718;2024-01-30T07:04:15;102935.44;;;5.60;100.00
51460;BME280;37534;39.772;2.718;2024-01-30T07:06:41;102943.22;;;5.63;100.00
51460;BME280;37534;39.772;2.718;2024-01-30T07:09:07;102944.66;;;5.55;100.00
51460;BME280;37534;39.772;2.718;2024-01-30T07:11:33;102945.53;;;5.56;100.00
51460;BME280;37534;39.772;2.718;2024-01-30T07:13:59;102961.25;;;5.68;100.00
51460;BME280;37534;39.772;2.718;2024-01-30T07:16:24;102960.88;;;5.84;100.00
51460;BME280;37534;39.772;2.718;2024-01-30T07:18:50;102965.19;;;5.85;100.00
51460;BME280;37534;39.772;2.718;2024-01-30T07:21:16;102968.13;;;5.96;100.00
51460;BME280;37534;39.772;2.718;2024-01-30T07:23:42;102968.56;;;6.12;100.00
51460;BME280;37534;39.772;2.718;2024-01-30T07:26:08;102956.66;;;6.14;100.00
51460;BME280;37534;39.772;2.718;2024-01-30T07:28:34;102970.81;;;6.31;100.00
51460;BME280;37534;39.772;2.718;2024-01-30T07:31:03;102962.63;;;6.44;100.00
51460;BME280;37534;39.772;2.718;2024-01-30T07:33:28;102968.38;;;6.36;100.00
51460;BME280;37534;39.772;2.718;2024-01-30T07:35:54;102970.28;;;6.43;100.00
51460;BME280;37534;39.772;2.718;2024-01-30T07:38:19;102969.84;;;6.58;100.00
51460;BME280;37534;39.772;2.718;2024-01-30T07:40:45;102975.97;;;6.63;100.00
51460;BME280;37534;39.772;2.718;2024-01-30T07:43:11;102966.66;;;6.66;100.00
51460;BME280;37534;39.772;2.718;2024-01-30T07:45:36;102978.88;;;6.77;100.00
51460;BME280;37534;39.772;2.718;2024-01-30T07:48:05;102967.94;;;6.82;100.00
51460;BME280;37534;39.772;2.718;2024-01-30T07:50:31;102966.22;;;6.83;100.00
51460;BME280;37534;39.772;2.718;2024-01-30T07:52:59;102976.88;;;6.98;100.00
51460;BME280;37534;39.772;2.718;2024-01-30T07:55:25;102975.94;;;6.95;100.00
51460;BME280;37534;39.772;2.718;2024-01-30T07:57:52;102963.38;;;7.06;100.00
51460;BME280;37534;39.772;2.718;2024-01-30T08:00:19;102985.78;;;7.13;100.00
51460;BME280;37534;39.772;2.718;2024-01-30T08:02:47;102985.72;;;7.10;100.00
51460;BME280;37534;39.772;2.718;2024-01-30T08:05:13;102985.25;;;7.26;100.00
51460;BME280;37534;39.772;2.718;2024-01-30T08:07:41;102979.44;;;7.33;100.00
51460;BME280;37534;39.772;2.718;2024-01-30T08:10:08;102980.38;;;7.37;100.00
51460;BME280;37534;39.772;2.718;2024-01-30T08:12:34;102986.56;;;7.45;100.00
51460;BME280;37534;39.772;2.718;2024-01-30T08:14:59;102979.78;;;7.49;100.00
51460;BME280;37534;39.772;2.718;2024-01-30T08:17:25;102988.75;;;7.66;100.00
51460;BME280;37534;39.772;2.718;2024-01-30T08:19:50;102989.94;;;7.80;100.00
51460;BME280;37534;39.772;2.718;2024-01-30T08:22:16;102985.81;;;7.87;100.00
51460;BME280;37534;39.772;2.718;2024-01-30T08:24:41;102983.50;;;7.99;100.00
51460;BME280;37534;39.772;2.718;2024-01-30T08:27:07;102989.69;;;8.09;100.00
51460;BME280;37534;39.772;2.718;2024-01-30T08:29:36;102993.34;;;8.19;100.00
51460;BME280;37534;39.772;2.718;2024-01-30T08:32:02;102990.69;;;8.16;100.00
51460;BME280;37534;39.772;2.718;2024-01-30T08:34:27;102995.19;;;8.28;100.00
51460;BME280;37534;39.772;2.718;2024-01-30T08:36:53;102991.69;;;8.23;100.00
51460;BME280;37534;39.772;2.718;2024-01-30T08:39:19;103004.00;;;8.39;100.00
51460;BME280;37534;39.772;2.718;2024-01-30T08:41:45;103002.72;;;8.58;100.00
51460;BME280;37534;39.772;2.718;2024-01-30T08:44:10;102991.56;;;8.59;100.00
51460;BME280;37534;39.772;2.718;2024-01-30T08:46:36;103003.84;;;8.72;100.00
51460;BME280;37534;39.772;2.718;2024-01-30T08:49:02;103003.31;;;8.93;100.00
51460;BME280;37534;39.772;2.718;2024-01-30T08:51:29;102999.03;;;9.46;100.00
51460;BME280;37534;39.772;2.718;2024-01-30T08:53:55;102994.75;;;10.82;100.00
51460;BME280;37534;39.772;2.718;2024-01-30T08:56:21;103019.91;;;12.35;100.00
51460;BME280;37534;39.772;2.718;2024-01-30T08:58:46;103015.75;;;13.42;100.00
51460;BME280;37534;39.772;2.718;2024-01-30T09:01:12;103010.44;;;13.95;100.00
51460;BME280;37534;39.772;2.718;2024-01-30T09:03:37;103018.16;;;14.10;100.00
51460;BME280;37534;39.772;2.718;2024-01-30T09:06:09;103025.84;;;14.35;100.00
51460;BME280;37534;39.772;2.718;2024-01-30T09:08:34;103020.34;;;14.92;100.00
51460;BME280;37534;39.772;2.718;2024-01-30T09:11:00;103025.72;;;15.71;100.00
51460;BME280;37534;39.772;2.718;2024-01-30T09:13:25;103031.78;;;16.44;99.55
51460;BME280;37534;39.772;2.718;2024-01-30T09:15:51;103031.38;;;16.73;96.65
51460;BME280;37534;39.772;2.718;2024-01-30T09:18:18;103032.00;;;16.91;93.22
51460;BME280;37534;39.772;2.718;2024-01-30T09:20:43;103034.00;;;16.72;92.82
51460;BME280;37534;39.772;2.718;2024-01-30T09:23:10;103037.50;;;17.75;95.86
51460;BME280;37534;39.772;2.718;2024-01-30T09:25:36;103041.97;;;18.95;86.42
51460;BME280;37534;39.772;2.718;2024-01-30T09:28:01;103034.97;;;19.96;77.91
51460;BME280;37534;39.772;2.718;2024-01-30T09:30:27;103037.84;;;21.54;74.43
51460;BME280;37534;39.772;2.718;2024-01-30T09:32:52;103046.09;;;22.84;68.46
51460;BME280;37534;39.772;2.718;2024-01-30T09:35:18;103038.28;;;24.23;60.24
51460;BME280;37534;39.772;2.718;2024-01-30T09:37:43;103052.63;;;25.09;53.33
51460;BME280;37534;39.772;2.718;2024-01-30T09:40:09;103040.34;;;24.35;51.60
51460;BME280;37534;39.772;2.718;2024-01-30T09:42:36;103055.75;;;25.68;50.67
51460;BME280;37534;39.772;2.718;2024-01-30T09:45:05;103054.47;;;26.41;47.39
51460;BME280;37534;39.772;2.718;2024-01-30T09:47:40;103058.84;;;26.88;46.17
51460;BME280;37534;39.772;2.718;2024-01-30T09:50:08;103057.19;;;27.31;45.76
51460;BME280;37534;39.772;2.718;2024-01-30T09:52:34;103063.72;;;27.83;43.72
51460;BME280;37534;39.772;2.718;2024-01-30T09:55:00;103063.97;;;28.63;41.59
51460;BME280;37534;39.772;2.718;2024-01-30T09:57:26;103064.78;;;28.91;42.21
51460;BME280;37534;39.772;2.718;2024-01-30T09:59:52;103067.56;;;28.90;41.01
51460;BME280;37534;39.772;2.718;2024-01-30T10:02:19;103072.72;;;29.57;40.46
51460;BME280;37534;39.772;2.718;2024-01-30T10:04:48;103071.31;;;29.90;38.93
51460;BME280;37534;39.772;2.718;2024-01-30T10:07:15;103057.69;;;29.94;38.52
51460;BME280;37534;39.772;2.718;2024-01-30T10:09:40;103070.00;;;30.45;38.27
51460;BME280;37534;39.772;2.718;2024-01-30T10:12:06;103056.53;;;29.86;38.01
51460;BME280;37534;39.772;2.718;2024-01-30T10:14:32;103055.84;;;29.58;38.75
51460;BME280;37534;39.772;2.718;2024-01-30T10:16:58;103051.88;;;30.50;36.57
51460;BME280;37534;39.772;2.718;2024-01-30T10:19:24;103066.44;;;30.58;36.08
51460;BME280;37534;39.772;2.718;2024-01-30T10:21:50;103057.75;;;30.67;35.22
51460;BME280;37534;39.772;2.718;2024-01-30T10:24:15;103062.25;;;31.13;35.87
51460;BME280;37534;39.772;2.718;2024-01-30T10:26:43;103057.16;;;31.21;34.32
51460;BME280;37534;39.772;2.718;2024-01-30T10:29:09;103050.50;;;31.16;34.24
51460;BME280;37534;39.772;2.718;2024-01-30T10:31:35;103062.09;;;31.61;33.98
51460;BME280;37534;39.772;2.718;2024-01-30T10:34:00;103057.16;;;30.99;34.04
51460;BME280;37534;39.772;2.718;2024-01-30T10:36:28;103066.88;;;29.52;34.73
51460;BME280;37534;39.772;2.718;2024-01-30T10:38:59;103055.50;;;30.49;33.97
51460;BME280;37534;39.772;2.718;2024-01-30T10:41:31;103057.34;;;31.65;32.32
51460;BME280;37534;39.772;2.718;2024-01-30T10:44:19;103052.84;;;31.65;33.54
51460;BME280;37534;39.772;2.718;2024-01-30T10:46:51;103042.38;;;32.08;32.98
51460;BME280;37534;39.772;2.718;2024-01-30T10:49:22;103046.97;;;31.94;32.65
51460;BME280;37534;39.772;2.718;2024-01-30T10:51:49;103035.41;;;31.61;32.93
51460;BME280;37534;39.772;2.718;2024-01-30T10:54:17;103047.22;;;32.02;33.25
51460;BME280;37534;39.772;2.718;2024-01-30T10:56:43;103039.59;;;33.16;31.43
51460;BME280;37534;39.772;2.718;2024-01-30T10:59:09;103042.94;;;33.70;31.51
51460;BME280;37534;39.772;2.718;2024-01-30T11:01:35;103037.94;;;34.06;30.77
51460;BME280;37534;39.772;2.718;2024-01-30T11:04:01;103042.97;;;33.80;31.29
51460;BME280;37534;39.772;2.718;2024-01-30T11:06:27;103024.78;;;33.83;31.14
51460;BME280;37534;39.772;2.718;2024-01-30T11:09:02;103032.34;;;34.28;30.55
51460;BME280;37534;39.772;2.718;2024-01-30T11:11:29;103038.34;;;33.51;30.51
51460;BME280;37534;39.772;2.718;2024-01-30T11:13:54;103021.16;;;33.53;31.21
51460;BME280;37534;39.772;2.718;2024-01-30T11:16:20;103013.31;;;33.00;31.65
51460;BME280;37534;39.772;2.718;2024-01-30T11:18:50;103013.19;;;32.81;32.29
51460;BME280;37534;39.772;2.718;2024-01-30T11:21:16;103010.84;;;32.66;31.96
51460;BME280;37534;39.772;2.718;2024-01-30T11:23:42;103000.25;;;32.11;33.11
51460;BME280;37534;39.772;2.718;2024-01-30T11:26:10;103012.63;;;32.45;32.48
51460;BME280;37534;39.772;2.718;2024-01-30T11:28:37;103014.47;;;32.65;32.18
51460;BME280;37534;39.772;2.718;2024-01-30T11:31:07;103011.19;;;32.40;32.38
51460;BME280;37534;39.772;2.718;2024-01-30T11:33:32;103001.16;;;31.78;32.69
51460;BME280;37534;39.772;2.718;2024-01-30T11:36:00;102997.72;;;31.98;33.23
51460;BME280;37534;39.772;2.718;2024-01-30T11:38:27;102999.28;;;32.01;32.97
51460;BME280;37534;39.772;2.718;2024-01-30T11:40:56;102994.19;;;31.98;33.54
51460;BME280;37534;39.772;2.718;2024-01-30T11:43:23;102995.44;;;32.80;32.47
51460;BME280;37534;39.772;2.718;2024-01-30T11:45:49;102991.78;;;33.23;31.22
51460;BME280;37534;39.772;2.718;2024-01-30T11:48:14;102989.38;;;33.29;31.71
51460;BME280;37534;39.772;2.718;2024-01-30T11:50:40;102985.06;;;32.12;32.16
51460;BME280;37534;39.772;2.718;2024-01-30T11:53:06;102986.84;;;32.55;31.79
51460;BME280;37534;39.772;2.718;2024-01-30T11:55:33;102975.28;;;32.33;32.34
51460;BME280;37534;39.772;2.718;2024-01-30T11:57:59;102982.06;;;32.80;31.83
51460;BME280;37534;39.772;2.718;2024-01-30T12:00:25;102965.16;;;31.72;32.75
51460;BME280;37534;39.772;2.718;2024-01-30T12:02:52;102965.78;;;32.19;32.33
51460;BME280;37534;39.772;2.718;2024-01-30T12:05:22;102976.72;;;32.37;32.79
51460;BME280;37534;39.772;2.718;2024-01-30T12:07:47;102964.53;;;32.45;32.47
51460;BME280;37534;39.772;2.718;2024-01-30T12:10:13;102962.13;;;31.65;33.50
51460;BME280;37534;39.772;2.718;2024-01-30T12:12:41;102971.63;;;31.13;33.94
51460;BME280;37534;39.772;2.718;2024-01-30T12:15:07;102960.16;;;30.77;34.35
51460;BME280;37534;39.772;2.718;2024-01-30T12:17:34;102954.97;;;31.32;34.03
51460;BME280;37534;39.772;2.718;2024-01-30T12:20:10;102955.44;;;31.71;33.48
51460;BME280;37534;39.772;2.718;2024-01-30T12:22:37;102956.75;;;32.20;33.48
51460;BME280;37534;39.772;2.718;2024-01-30T12:25:20;102951.31;;;32.43;32.57
51460;BME280;37534;39.772;2.718;2024-01-30T12:27:47;102956.03;;;32.72;32.24
51460;BME280;37534;39.772;2.718;2024-01-30T12:30:18;102956.13;;;32.91;32.01
51460;BME280;37534;39.772;2.718;2024-01-30T12:32:44;102951.63;;;32.92;32.15
51460;BME280;37534;39.772;2.718;2024-01-30T12:35:15;102940.03;;;33.12;31.70
51460;BME280;37534;39.772;2.718;2024-01-30T12:37:42;102945.09;;;32.85;31.30
51460;BME280;37534;39.772;2.718;2024-01-30T12:40:09;102943.44;;;32.42;32.79
51460;BME280;37534;39.772;2.718;2024-01-30T12:42:35;102928.31;;;32.52;31.75
51460;BME280;37534;39.772;2.718;2024-01-30T12:45:05;102936.84;;;32.25;32.42